• Join FlightAware (Why Join?)
  • Login
  • US Flag 
08:31PM EDT


 

Airport Tracker/Info


-or-


 

Live Flight TrackerFlight Track Log ✈ SWA1035 ✈ 25-Apr-2013 ✈ KTPA - KMCI

Flight Track Log - Related Links

Times and Time Zones

All times are in EDT time to prevent confusion due to time zone crossing. See the SWA1035 flight status page for this flight to view local times or setup timezone preferences in your user account.

Time Position Orientation Groundspeed Altitude Reporting Facility
EDT Latitude Longitude Course Direction KTS MPH feet Rate Location/Type
11:15AM 27.9667 -82.5500 180° South 153 176 700  Level Tampa TRACON
11:16AM 27.9333 -82.5500 180° South 176 203 1,700 2,340 Climbing Tampa TRACON
11:18AM 27.8575 -82.6414 227° Southwest 192 221 7,500 2,700 Climbing Jacksonville Center
11:19AM 27.9328 -82.6647 345° North 151 174 10,700 2,520 Climbing Jacksonville Center
11:20AM 28.0267 -82.6881 348° North 255 293 12,600 2,340 Climbing Jacksonville Center
11:21AM 28.1289 -82.7136 348° North 298 343 15,400 2,580 Climbing Jacksonville Center
11:22AM 28.2311 -82.7394 347° North 352 405 17,800 2,340 Climbing Jacksonville Center
11:23AM 28.3397 -82.7675 347° North 376 433 20,100 2,220 Climbing Jacksonville Center
11:24AM 28.4567 -82.7958 348° North 401 461 22,300 2,160 Climbing Jacksonville Center
11:25AM 28.5736 -82.8192 350° North 416 479 24,500 1,980 Climbing Jacksonville Center
11:26AM 28.6758 -82.8831 331° Northwest 421 484 26,300 1,680 Climbing Jacksonville Center
11:27AM 28.7781 -82.9542 329° Northwest 421 484 27,900 1,920 Climbing Jacksonville Center
11:28AM 28.8825 -83.0231 330° Northwest 431 496 30,200 2,040 Climbing Jacksonville Center
11:29AM 28.9844 -83.0967 328° Northwest 431 496 32,000 1,860 Climbing Jacksonville Center
11:30AM 29.0847 -83.1658 329° Northwest 431 496 34,000 2,340 Climbing Jacksonville Center
11:31AM 29.1764 -83.2303 328° Northwest 417 480 36,700 1,800 Climbing Jacksonville Center
11:32AM 29.2639 -83.2925 328° Northwest 394 453 37,700 600 Climbing Jacksonville Center
11:33AM 29.3533 -83.3547 329° Northwest 380 437 38,000 120 Climbing Jacksonville Center
11:34AM 29.4428 -83.4172 329° Northwest 380 437 38,000  Level Jacksonville Center
11:35AM 29.5386 -83.4869 328° Northwest 375 432 38,000  Level Jacksonville Center
11:36AM 29.6281 -83.5472 330° Northwest 375 432 38,000  Level Jacksonville Center
11:37AM 29.7175 -83.6100 329° Northwest 375 432 38,000  Level Jacksonville Center
11:38AM 29.8047 -83.6728 328° Northwest 375 432 38,000  Level Jacksonville Center
11:39AM 29.8942 -83.7358 329° Northwest 375 432 38,000  Level Jacksonville Center
11:40AM 29.9814 -83.7989 328° Northwest 370 426 38,000  Level Jacksonville Center
11:41AM 30.0728 -83.8622 329° Northwest 370 426 38,000  Level Jacksonville Center
11:42AM 30.1581 -83.9256 327° Northwest 370 426 38,000  Level Jacksonville Center
11:43AM 30.2472 -83.9867 329° Northwest 370 426 38,000  Level Jacksonville Center
11:44AM 30.3344 -84.0503 328° Northwest 370 426 38,000  Level Jacksonville Center
11:45AM 30.4086 -84.1306 317° Northwest 363 418 38,000  Level Jacksonville Center
11:46AM 30.4664 -84.2231 306° West 350 403 38,000  Level Jacksonville Center
11:47AM 30.5194 -84.3153 304° West 350 403 38,000  Level Jacksonville Center
11:48AM 30.5750 -84.3981 308° West 357 411 38,000  Level Jacksonville Center
11:49AM 30.6469 -84.4814 315° West 363 418 38,000  Level Jacksonville Center
11:50AM 30.7272 -84.5722 316° Northwest 363 418 38,000  Level Jacksonville Center
11:51AM 30.8014 -84.6533 317° Northwest 368 423 38,000  Level Jacksonville Center
11:52AM 30.8650 -84.7319 313° West 363 418 38,000  Level Jacksonville Center
11:53AM 30.9472 -84.8206 317° Northwest 358 412 38,000  Level Jacksonville Center
11:54AM 31.0108 -84.8947 315° West 363 418 38,000  Level Jacksonville Center
11:57AM 31.1828 -85.0969 315° West 363 418 38,000  Level Atlanta Center
11:58AM 31.2572 -85.1831 315° West 363 418 38,000  Level Atlanta Center
11:59AM 31.3314 -85.2689 315° West 363 418 38,000  Level Atlanta Center
12:00PM 31.4058 -85.3550 315° West 363 418 38,000  Level Atlanta Center
12:01PM 31.4778 -85.4389 315° West 363 418 38,000  Level Atlanta Center
12:02PM 31.5519 -85.5231 316° Northwest 363 418 38,000  Level Atlanta Center
12:03PM 31.6261 -85.6119 314° West 370 426 38,000  Level Atlanta Center
12:04PM 31.6981 -85.6986 314° West 375 432 38,000  Level Atlanta Center
12:05PM 31.7822 -85.7978 315° West 380 437 38,000  Level Atlanta Center
12:06PM 31.8558 -85.8872 314° West 380 437 38,000  Level Atlanta Center
12:07PM 31.9278 -85.9744 314° West 380 437 38,000  Level Atlanta Center
12:08PM 32.0036 -86.0619 316° Northwest 380 437 38,000  Level Atlanta Center
12:09PM 32.0647 -86.1392 313° West 374 430 38,000  Level Atlanta Center
12:10PM 32.1569 -86.2394 317° Northwest 394 453 38,000  Level Atlanta Center
12:11PM 32.2286 -86.3247 315° West 384 442 38,000  Level Atlanta Center
12:12PM 32.3019 -86.4175 313° West 367 422 38,000  Level Atlanta Center
12:13PM 32.3692 -86.5031 313° West 367 422 38,000  Level Atlanta Center
12:14PM 32.4403 -86.5911 314° West 367 422 38,000  Level Atlanta Center
12:15PM 32.5053 -86.6767 312° West 367 422 38,000  Level Atlanta Center
12:16PM 32.5744 -86.7650 313° West 361 415 38,000  Level Atlanta Center
12:17PM 32.6475 -86.8511 315° West 366 421 38,000  Level Atlanta Center
12:18PM 32.7144 -86.9397 312° West 366 421 38,000  Level Atlanta Center
12:19PM 32.7875 -87.0236 316° Northwest 366 421 38,000  Level Atlanta Center
12:20PM 32.8564 -87.1125 313° West 366 421 38,000  Level Atlanta Center
12:21PM 32.9250 -87.2014 313° West 366 421 38,000  Level Atlanta Center
12:22PM 33.0319 -87.3467 311° West 358 412 38,000  Level Memphis Center
12:23PM 33.1008 -87.4336 313° West 353 406 38,000  Level Memphis Center
12:24PM 33.1656 -87.5208 312° West 359 413 38,000  Level Memphis Center
12:25PM 33.2342 -87.6056 314° West 359 413 38,000  Level Memphis Center
12:26PM 33.3008 -87.6953 312° West 359 413 38,000  Level Memphis Center
12:27PM 33.3675 -87.7828 312° West 359 413 38,000  Level Memphis Center
12:28PM 33.4361 -87.8703 313° West 359 413 38,000  Level Memphis Center
12:29PM 33.4961 -87.9483 313° West 359 413 38,000  Level Memphis Center
12:30PM 33.5625 -88.0364 312° West 359 413 38,000  Level Memphis Center
12:31PM 33.6289 -88.1269 311° West 359 413 38,000  Level Memphis Center
12:32PM 33.6992 -88.2150 314° West 359 413 38,000  Level Memphis Center
12:33PM 33.7675 -88.3033 313° West 359 413 38,000  Level Memphis Center
12:34PM 33.8336 -88.3917 312° West 359 413 38,000  Level Memphis Center
12:35PM 33.8997 -88.4803 312° West 359 413 38,000  Level Memphis Center
12:36PM 33.9678 -88.5689 313° West 359 413 38,000  Level Memphis Center
12:37PM 34.0336 -88.6578 312° West 359 413 38,000  Level Memphis Center
12:38PM 34.1017 -88.7467 313° West 359 413 38,000  Level Memphis Center
12:39PM 34.1653 -88.8308 312° West 353 406 38,000  Level Memphis Center
12:40PM 34.2375 -88.9250 313° West 345 397 38,000  Level Memphis Center
12:41PM 34.3011 -89.0119 312° West 345 397 38,000  Level Memphis Center
12:42PM 34.3667 -89.0992 312° West 345 397 38,000  Level Memphis Center
12:43PM 34.4300 -89.1861 311° West 345 397 38,000  Level Memphis Center
12:44PM 34.4956 -89.2736 312° West 350 403 38,000  Level Memphis Center
12:45PM 34.5589 -89.3608 311° West 350 403 38,000  Level Memphis Center
12:46PM 34.6242 -89.4486 312° West 355 409 38,000  Level Memphis Center
12:47PM 34.6894 -89.5361 312° West 355 409 38,000  Level Memphis Center
12:48PM 34.7506 -89.6217 311° West 350 403 38,000  Level Memphis Center
12:49PM 34.8178 -89.7147 311° West 355 409 38,000  Level Memphis Center
12:50PM 34.8808 -89.8028 311° West 355 409 38,000  Level Memphis Center
12:51PM 34.9544 -89.8986 313° West 362 417 38,000  Level Memphis Center
12:52PM 35.0150 -89.9819 312° West 363 418 38,000  Level Memphis Center
12:53PM 35.0781 -90.0678 312° West 351 404 38,000  Level Memphis Center
12:54PM 35.1428 -90.1539 313° West 346 398 38,000  Level Memphis Center
12:55PM 35.2033 -90.2403 311° West 346 398 38,000  Level Memphis Center
12:56PM 35.2681 -90.3264 313° West 341 392 38,000  Level Memphis Center
12:57PM 35.3244 -90.4081 310° West 341 392 38,000  Level Memphis Center
12:58PM 35.3869 -90.4919 312° West 341 392 38,000  Level Memphis Center
12:59PM 35.4514 -90.5814 312° West 341 392 38,000  Level Memphis Center
01:00PM 35.5139 -90.6683 311° West 341 392 38,000  Level Memphis Center
01:01PM 35.5761 -90.7578 311° West 341 392 38,000  Level Memphis Center
01:02PM 35.6406 -90.8475 311° West 341 392 38,000  Level Memphis Center
01:03PM 35.7047 -90.9450 309° West 346 398 38,000  Level Memphis Center
01:04PM 35.7669 -91.0325 311° West 341 392 38,000  Level Memphis Center
01:05PM 35.8311 -91.1200 312° West 341 392 38,000  Level Memphis Center
01:06PM 35.8950 -91.2103 311° West 336 387 38,000  Level Memphis Center
01:07PM 35.9592 -91.3033 310° West 346 398 38,000  Level Memphis Center
01:08PM 36.0189 -91.3886 311° West 346 398 38,000  Level Memphis Center
01:10PM 36.0842 -91.4852 310° West  Level FlightAware Approximate
01:10PM 36.1486 -91.5703 310° West 352 405 38,000  Level Memphis Center
01:11PM 36.2122 -91.6636 310° West 352 405 38,000  Level Memphis Center
01:12PM 36.2636 -91.7367 311° West 357 411 38,000  Level Memphis Center
01:13PM 36.3394 -91.8461 311° West 357 411 38,000  Level Memphis Center
01:14PM 36.4050 -91.9350 313° West 357 411 38,000  Level Memphis Center
01:15PM 36.4664 -92.0264 310° West 357 411 38,000  Level Memphis Center
01:16PM 36.5297 -92.1181 311° West 352 405 38,000  Level Memphis Center
01:18PM 36.6506 -92.2928 311° West 344 396 38,000  Level Kansas City Center
01:19PM 36.7136 -92.3828 311° West 344 396 38,000 -300 Level Kansas City Center
01:21PM 36.7750 -92.4731 310° West 341 392 37,500 -720 Descending Kansas City Center
01:22PM 36.8375 -92.5647 310° West 343 395 36,600 -960 Descending Kansas City Center
01:23PM 36.9003 -92.6572 310° West 348 400 35,600 -1,020 Descending Kansas City Center
01:24PM 36.9636 -92.7494 311° West 347 399 34,600 -780 Descending Kansas City Center
01:25PM 37.0267 -92.8419 311° West 347 399 34,000 -300 Descending Kansas City Center
01:26PM 37.1025 -92.9550 310° West 350 403 34,000  Level Kansas City Center
01:27PM 37.1650 -93.0481 310° West 348 400 34,000  Level Kansas City Center
01:28PM 37.2278 -93.1422 310° West 349 402 34,000  Level Kansas City Center
01:29PM 37.2903 -93.2358 310° West 347 399 34,000  Level Kansas City Center
01:30PM 37.3547 -93.3283 311° West 350 403 34,000  Level Kansas City Center
01:31PM 37.4475 -93.3858 334° Northwest 366 421 34,000 -540 Level Kansas City Center
01:32PM 37.5408 -93.4372 336° Northwest 365 420 32,900 -1,080 Descending Kansas City Center
01:33PM 37.6339 -93.4894 336° Northwest 365 420 31,800 -1,140 Descending Kansas City Center
01:34PM 37.7431 -93.5492 337° Northwest 356 410 30,600 -1,080 Descending Kansas City Center
01:35PM 37.8300 -93.5981 336° Northwest 345 397 29,600 -1,020 Descending Kansas City Center
01:36PM 37.9133 -93.6453 336° Northwest 333 383 28,500 -1,020 Descending Kansas City Center
01:37PM 37.9989 -93.6936 336° Northwest 332 382 27,500 -960 Descending Kansas City Center
01:38PM 38.0844 -93.7419 336° Northwest 334 384 26,500 -960 Descending Kansas City Center
01:39PM 38.1692 -93.7892 336° Northwest 332 382 25,500 -1,020 Descending Kansas City Center
01:40PM 38.2528 -93.8375 336° Northwest 330 380 24,500 -1,080 Descending Kansas City Center
01:41PM 38.3514 -93.8925 336° Northwest 323 372 23,300 -1,080 Descending Kansas City Center
01:42PM 38.4319 -93.9392 336° Northwest 319 367 22,300 -1,020 Descending Kansas City Center
01:43PM 38.5056 -93.9822 335° Northwest 319 367 21,300 -1,020 Descending Kansas City Center
01:44PM 38.5964 -94.0339 336° Northwest 319 367 20,200 -1,080 Descending Kansas City Center
01:45PM 38.6722 -94.0775 336° Northwest 314 361 19,100 -1,140 Descending Kansas City Center
01:46PM 38.7436 -94.1483 322° Northwest 285 328 18,000 -1,380 Descending Kansas City Center
01:47PM 38.8008 -94.2111 319° Northwest 282 325 16,300 -1,800 Descending Kansas City Center
01:48PM 38.8683 -94.2839 320° Northwest 281 323 14,300 -1,800 Descending Kansas City Center
01:49PM 38.9244 -94.3444 320° Northwest 277 319 12,700 -1,080 Descending Kansas City Center
01:51PM 38.9892 -94.4136 320° Northwest 272 313 12,100 -300 Descending Kansas City Center
01:52PM 39.0472 -94.4778 319° Northwest 287 330 12,100  Level Kansas City Center
01:53PM 39.1172 -94.5533 320° Northwest 294 338 12,100 -60 Level Kansas City Center
01:54PM 39.1717 -94.6075 322° Northwest 261 300 12,000 -720 Descending Kansas City Center
01:55PM 39.2450 -94.5900 10° North 245 282 10,700 -1,140 Descending Kansas City Center
01:56PM 39.2981 -94.5742 13° North 205 236 9,700 -1,380 Descending Kansas City Center
01:57PM 39.3589 -94.5564 13° North 202 232 7,900 -1,560 Descending Kansas City Center
01:58PM 39.4128 -94.5325 19° North 212 244 6,600 -1,380 Descending Kansas City Center
01:59PM 39.4728 -94.5250 North 204 235 5,100 -1,440 Descending Kansas City Center
02:00PM 39.4603 -94.5844 255° West 190 219 3,600 -1,020 Descending Kansas City Center
02:01PM 39.4164 -94.6369 223° Southwest 190 219 3,100 -600 Descending Kansas City Center
02:02PM 39.3756 -94.6756 216° Southwest 189 217 2,400 -780 Descending Kansas City Center
02:03PM 39.3367 -94.6931 199° South 154 177 1,600 -780 Descending Kansas City Center
02:04PM 39.3017 -94.7031 192° South 140 161 900 -660 Descending Kansas City Center